createdAt,value
2022-12-23T00:00:55.328Z,8.46
2022-12-23T00:03:22.148Z,8.44
2022-12-23T00:05:48.780Z,8.44
2022-12-23T00:08:16.719Z,8.46
2022-12-23T00:10:43.284Z,8.46
2022-12-23T00:13:11.091Z,8.47
2022-12-23T00:15:37.588Z,8.49
2022-12-23T00:18:04.742Z,8.50
2022-12-23T00:20:31.251Z,8.39
2022-12-23T00:22:57.801Z,8.47
2022-12-23T00:25:25.946Z,8.45
2022-12-23T00:27:52.943Z,8.44
2022-12-23T00:30:19.650Z,8.33
2022-12-23T00:32:46.215Z,8.41
2022-12-23T00:35:12.773Z,8.39
2022-12-23T00:37:39.342Z,8.41
2022-12-23T00:40:09.469Z,8.43
2022-12-23T00:42:37.353Z,8.44
2022-12-23T00:45:04.402Z,8.45
2022-12-23T00:47:31.042Z,8.40
2022-12-23T00:49:57.550Z,8.38
2022-12-23T00:52:24.113Z,8.38
2022-12-23T00:54:50.641Z,8.38
2022-12-23T00:57:17.276Z,8.31
2022-12-23T00:59:45.107Z,8.34
2022-12-23T01:02:12.132Z,8.37
2022-12-23T01:04:38.723Z,8.38
2022-12-23T01:07:06.423Z,8.36
2022-12-23T01:09:33.380Z,7.83
2022-12-23T01:11:59.986Z,8.35
2022-12-23T01:14:26.639Z,8.36
2022-12-23T01:16:54.916Z,8.32
2022-12-23T01:19:21.522Z,8.36
2022-12-23T01:21:48.058Z,8.04
2022-12-23T01:24:14.613Z,8.36
2022-12-23T01:26:41.205Z,8.32
2022-12-23T01:29:07.721Z,8.13
2022-12-23T01:31:34.450Z,8.32
2022-12-23T01:34:02.384Z,8.33
2022-12-23T01:36:29.032Z,8.36
2022-12-23T01:38:56.065Z,8.38
2022-12-23T01:41:25.051Z,8.39
2022-12-23T01:43:52.084Z,8.40
2022-12-23T01:46:18.851Z,8.42
2022-12-23T01:48:49.548Z,8.42
2022-12-23T01:51:23.104Z,8.44
2022-12-23T01:53:53.099Z,8.43
2022-12-23T01:56:24.678Z,8.30
2022-12-23T01:58:55.630Z,8.31
2022-12-23T02:01:22.279Z,8.39
2022-12-23T02:03:51.054Z,8.38
2022-12-23T02:06:24.290Z,8.38
2022-12-23T02:08:50.850Z,8.41
2022-12-23T02:11:35.140Z,8.41
2022-12-23T02:14:20.531Z,8.45
2022-12-23T02:16:59.379Z,8.45
2022-12-23T02:19:46.954Z,8.44
2022-12-23T02:22:34.646Z,8.42
2022-12-23T02:25:29.645Z,8.43
2022-12-23T02:28:21.406Z,8.39
2022-12-23T02:30:55.902Z,8.36
2022-12-23T02:33:36.018Z,8.27
2022-12-23T02:36:17.458Z,8.33
2022-12-23T02:38:49.194Z,8.36
2022-12-23T02:41:23.264Z,8.36
2022-12-23T02:43:56.045Z,8.37
2022-12-23T02:46:30.339Z,8.36
2022-12-23T02:49:02.017Z,8.44
2022-12-23T02:51:32.617Z,8.44
2022-12-23T02:54:03.023Z,8.16
2022-12-23T02:56:32.184Z,8.43
2022-12-23T02:59:02.590Z,8.43
2022-12-23T03:01:33.205Z,8.33
2022-12-23T03:04:00.285Z,8.41
2022-12-23T03:06:29.582Z,8.22
2022-12-23T03:08:58.991Z,8.46
2022-12-23T03:11:32.939Z,8.45
2022-12-23T03:14:34.117Z,8.50
2022-12-23T03:17:13.644Z,8.48
2022-12-23T03:19:46.858Z,8.24
2022-12-23T03:22:23.049Z,8.47
2022-12-23T03:24:55.351Z,8.47
2022-12-23T03:27:27.437Z,8.49
2022-12-23T03:29:59.255Z,8.55
2022-12-23T03:32:28.610Z,8.53
2022-12-23T03:34:59.249Z,8.54
2022-12-23T03:37:28.735Z,8.53
2022-12-23T03:40:00.957Z,8.34
2022-12-23T03:42:34.016Z,8.67
2022-12-23T03:45:36.931Z,8.76
2022-12-23T03:47:58.203Z,8.68
2022-12-23T03:50:25.402Z,8.84
2022-12-23T03:52:56.597Z,8.90
2022-12-23T03:55:27.728Z,8.97
2022-12-23T03:58:01.902Z,9.05
2022-12-23T04:00:32.860Z,9.08
2022-12-23T04:03:10.474Z,9.13
2022-12-23T04:05:40.298Z,9.11
2022-12-23T04:08:14.355Z,9.20
2022-12-23T04:10:41.188Z,9.24
2022-12-23T04:13:08.332Z,9.15
2022-12-23T04:15:39.047Z,9.28
2022-12-23T04:18:08.316Z,9.34
2022-12-23T04:20:34.862Z,9.35
2022-12-23T04:23:01.449Z,9.39
2022-12-23T04:25:28.197Z,9.33
2022-12-23T04:27:54.811Z,9.34
2022-12-23T04:30:21.353Z,9.35
2022-12-23T04:32:47.996Z,9.34
2022-12-23T04:35:15.913Z,9.39
2022-12-23T04:37:42.607Z,9.39
2022-12-23T04:40:09.729Z,9.45
2022-12-23T04:42:36.413Z,9.52
2022-12-23T04:45:03.335Z,9.51
2022-12-23T04:47:29.948Z,9.53
2022-12-23T04:49:56.571Z,9.62
2022-12-23T04:52:24.555Z,9.56
2022-12-23T04:54:51.137Z,9.62
2022-12-23T04:57:17.985Z,9.63
2022-12-23T04:59:44.516Z,9.61
2022-12-23T05:02:11.497Z,9.61
2022-12-23T05:04:38.243Z,9.59
2022-12-23T05:07:05.292Z,9.68
2022-12-23T05:09:33.234Z,9.74
2022-12-23T05:11:59.947Z,9.57
2022-12-23T05:14:26.488Z,9.67
2022-12-23T05:16:53.159Z,9.79
2022-12-23T05:19:19.715Z,9.82
2022-12-23T05:21:46.323Z,9.80
2022-12-23T05:24:12.888Z,9.79
2022-12-23T05:26:42.818Z,9.77
2022-12-23T05:29:11.493Z,9.81
2022-12-23T05:31:38.055Z,9.77
2022-12-23T05:34:06.760Z,9.78
2022-12-23T05:36:33.609Z,9.79
2022-12-23T05:39:00.297Z,9.74
2022-12-23T05:41:26.823Z,9.75
2022-12-23T05:43:54.771Z,9.63
2022-12-23T05:46:26.552Z,9.71
2022-12-23T05:48:53.355Z,9.72
2022-12-23T05:51:19.878Z,9.69
2022-12-23T05:53:46.563Z,9.72
2022-12-23T05:56:13.091Z,9.70
2022-12-23T05:58:39.798Z,9.71
2022-12-23T06:01:08.818Z,9.70
2022-12-23T06:03:35.583Z,9.69
2022-12-23T06:06:02.428Z,9.65
2022-12-23T06:08:29.057Z,9.65
2022-12-23T06:10:55.627Z,9.62
2022-12-23T06:13:22.231Z,9.56
2022-12-23T06:15:48.787Z,9.41
2022-12-23T06:18:16.778Z,9.61
2022-12-23T06:20:46.048Z,9.60
2022-12-23T06:23:12.880Z,9.60
2022-12-23T06:25:39.463Z,9.60
2022-12-23T06:28:06.080Z,9.59
2022-12-23T06:30:32.637Z,9.45
2022-12-23T06:32:59.452Z,9.51
2022-12-23T06:35:27.343Z,9.48
2022-12-23T06:37:53.961Z,9.41
2022-12-23T06:40:20.530Z,9.40
2022-12-23T06:42:47.159Z,9.41
2022-12-23T06:45:13.754Z,9.30
2022-12-23T06:47:40.384Z,9.18
2022-12-23T06:50:07.920Z,9.39
2022-12-23T06:52:36.026Z,9.38
2022-12-23T06:55:02.675Z,9.30
2022-12-23T06:57:29.399Z,9.24
2022-12-23T06:59:56.039Z,9.25
2022-12-23T07:02:22.921Z,9.23
2022-12-23T07:04:49.630Z,8.60
2022-12-23T07:07:16.232Z,9.27
2022-12-23T07:09:44.176Z,9.37
2022-12-23T07:12:10.801Z,9.26
2022-12-23T07:14:37.360Z,9.27
2022-12-23T07:17:04.014Z,9.23
2022-12-23T07:19:30.706Z,9.18
2022-12-23T07:21:57.349Z,9.17
2022-12-23T07:24:23.928Z,9.16
2022-12-23T07:26:52.353Z,8.71
2022-12-23T07:29:18.883Z,9.18
2022-12-23T07:31:45.811Z,9.21
2022-12-23T07:34:12.481Z,9.21
2022-12-23T07:36:39.107Z,9.14
2022-12-23T07:39:05.983Z,9.23
2022-12-23T07:41:32.625Z,9.29
2022-12-23T07:44:07.162Z,9.26
2022-12-23T07:46:33.785Z,9.32
2022-12-23T07:49:00.363Z,9.35
2022-12-23T07:51:26.981Z,9.39
2022-12-23T07:53:53.536Z,9.40
2022-12-23T07:56:20.606Z,9.42
2022-12-23T07:58:48.651Z,9.43
2022-12-23T08:01:17.449Z,9.46
2022-12-23T08:03:44.344Z,9.40
2022-12-23T08:06:12.797Z,9.48
2022-12-23T08:08:40.210Z,9.52
2022-12-23T08:11:08.225Z,9.54
2022-12-23T08:13:36.769Z,9.54
2022-12-23T08:16:04.797Z,9.56
2022-12-23T08:18:34.714Z,9.57
2022-12-23T08:21:03.453Z,9.59
2022-12-23T08:23:31.248Z,9.63
2022-12-23T08:26:00.205Z,9.64
2022-12-23T08:28:27.015Z,9.42
2022-12-23T08:30:53.701Z,9.65
2022-12-23T08:33:20.307Z,9.63
2022-12-23T08:35:48.319Z,9.63
2022-12-23T08:38:14.867Z,9.48
2022-12-23T08:40:41.544Z,9.61
2022-12-23T08:43:08.106Z,9.57
2022-12-23T08:45:36.995Z,9.64
2022-12-23T08:48:04.092Z,9.63
2022-12-23T08:50:30.976Z,9.66
2022-12-23T08:52:58.902Z,9.68
2022-12-23T08:55:25.500Z,9.68
2022-12-23T08:57:52.043Z,9.69
2022-12-23T09:00:18.843Z,9.70
2022-12-23T09:02:45.515Z,9.72
2022-12-23T09:05:12.354Z,9.74
2022-12-23T09:07:38.863Z,9.75
2022-12-23T09:10:08.283Z,9.79
2022-12-23T09:12:34.857Z,9.80
2022-12-23T09:15:01.476Z,9.82
2022-12-23T09:17:28.011Z,9.84
2022-12-23T09:19:54.589Z,9.87
2022-12-23T09:22:21.151Z,9.91
2022-12-23T09:24:47.752Z,9.70
2022-12-23T09:27:15.644Z,9.33
2022-12-23T09:29:42.229Z,10.01
2022-12-23T09:32:08.918Z,10.02
2022-12-23T09:34:35.544Z,10.08
2022-12-23T09:37:02.978Z,10.11
2022-12-23T09:39:29.573Z,10.12
2022-12-23T09:42:05.592Z,10.08
2022-12-23T09:44:54.667Z,10.09
2022-12-23T09:47:25.962Z,10.01
2022-12-23T09:49:56.499Z,10.05
2022-12-23T09:52:28.817Z,10.07
2022-12-23T09:54:55.544Z,10.09
2022-12-23T09:57:26.926Z,10.06
2022-12-23T10:00:04.618Z,10.06
2022-12-23T10:02:42.586Z,10.02
2022-12-23T10:05:20.960Z,10.04
2022-12-23T10:07:53.414Z,10.04
2022-12-23T10:10:31.729Z,10.05
2022-12-23T10:13:01.795Z,9.99
2022-12-23T10:15:34.787Z,10.02
2022-12-23T10:18:07.407Z,10.05
2022-12-23T10:20:41.286Z,10.05
2022-12-23T10:23:15.843Z,10.06
2022-12-23T10:25:48.976Z,10.08
2022-12-23T10:28:15.636Z,10.09
2022-12-23T10:31:17.108Z,10.09
2022-12-23T10:33:46.316Z,10.09
2022-12-23T10:36:17.578Z,10.11
2022-12-23T10:38:53.749Z,10.13
2022-12-23T10:41:29.482Z,10.16
2022-12-23T10:44:18.042Z,10.18
2022-12-23T10:46:56.069Z,10.05
2022-12-23T10:49:32.294Z,10.13
2022-12-23T10:52:03.336Z,10.18
2022-12-23T10:54:33.812Z,10.01
2022-12-23T10:57:01.933Z,10.22
2022-12-23T10:59:30.995Z,10.23
2022-12-23T11:02:05.359Z,10.25
2022-12-23T11:04:35.097Z,10.25
2022-12-23T11:07:41.536Z,10.22
2022-12-23T11:09:54.023Z,10.16
2022-12-23T11:12:23.365Z,10.19
2022-12-23T11:14:51.767Z,10.19
2022-12-23T11:17:22.992Z,10.19
2022-12-23T11:20:07.902Z,10.20
2022-12-23T11:22:34.578Z,10.20
2022-12-23T11:25:24.843Z,10.21
2022-12-23T11:27:53.912Z,10.11
2022-12-23T11:30:20.500Z,10.24
2022-12-23T11:32:49.523Z,10.12
2022-12-23T11:35:24.992Z,10.25
2022-12-23T11:37:51.792Z,10.26
2022-12-23T11:40:25.498Z,10.27
2022-12-23T11:42:56.190Z,10.26
2022-12-23T11:45:25.567Z,10.27
2022-12-23T11:47:53.823Z,10.28
2022-12-23T11:50:30.327Z,10.27
2022-12-23T11:53:09.568Z,10.27
2022-12-23T11:55:39.044Z,10.26
2022-12-23T11:58:12.200Z,10.27
2022-12-23T12:00:42.083Z,10.14
2022-12-23T12:03:19.400Z,10.32
2022-12-23T12:05:49.607Z,10.32
2022-12-23T12:08:20.939Z,10.35
2022-12-23T12:10:51.670Z,10.35
2022-12-23T12:13:25.910Z,10.44
2022-12-23T12:16:08.170Z,10.28
2022-12-23T12:18:38.322Z,10.33
2022-12-23T12:21:10.692Z,10.40
2022-12-23T12:23:44.115Z,10.26
2022-12-23T12:26:17.673Z,10.39
2022-12-23T12:28:46.262Z,10.32
2022-12-23T12:31:21.263Z,10.08
2022-12-23T12:33:53.457Z,10.04
2022-12-23T12:36:32.906Z,10.09
2022-12-23T12:38:59.696Z,10.01
2022-12-23T12:41:33.036Z,10.08
2022-12-23T12:44:07.496Z,10.09
2022-12-23T12:46:40.935Z,10.20
2022-12-23T12:49:17.889Z,10.12
2022-12-23T12:51:49.791Z,10.03
2022-12-23T12:54:22.202Z,10.06
2022-12-23T12:56:50.950Z,9.95
2022-12-23T12:59:20.165Z,9.88
2022-12-23T13:01:55.715Z,9.80
2022-12-23T13:04:58.734Z,9.94
2022-12-23T13:07:32.820Z,9.89
2022-12-23T13:10:09.218Z,9.90
2022-12-23T13:12:49.700Z,9.98
2022-12-23T13:15:22.022Z,9.99
2022-12-23T13:18:05.503Z,9.88
2022-12-23T13:20:40.016Z,9.96
2022-12-23T13:23:42.316Z,9.87
2022-12-23T13:26:08.392Z,9.93
2022-12-23T13:28:44.313Z,10.05
2022-12-23T13:31:30.920Z,10.01
2022-12-23T13:34:06.164Z,9.91
2022-12-23T13:36:45.230Z,9.68
2022-12-23T13:39:26.867Z,9.79
2022-12-23T13:42:03.021Z,9.83
2022-12-23T13:44:34.006Z,9.87
2022-12-23T13:47:07.977Z,9.70
2022-12-23T13:49:48.406Z,9.97
2022-12-23T13:52:24.308Z,9.85
2022-12-23T13:54:56.379Z,9.81
2022-12-23T13:57:41.281Z,9.82
2022-12-23T14:00:28.097Z,9.90
2022-12-23T14:03:15.884Z,9.92
2022-12-23T14:05:43.565Z,9.95
2022-12-23T14:08:22.475Z,9.84
2022-12-23T14:10:53.238Z,9.81
2022-12-23T14:13:23.804Z,9.72
2022-12-23T14:16:26.591Z,9.88
2022-12-23T14:19:24.783Z,9.96
2022-12-23T14:22:04.085Z,9.98
2022-12-23T14:25:00.737Z,9.95
2022-12-23T14:27:45.511Z,9.97
2022-12-23T14:30:16.034Z,9.95
2022-12-23T14:32:47.852Z,9.94
2022-12-23T14:35:44.437Z,9.94
2022-12-23T14:38:24.002Z,10.04
2022-12-23T14:41:12.948Z,10.01
2022-12-23T14:43:52.715Z,10.08
2022-12-23T14:46:55.526Z,10.09
2022-12-23T14:49:39.539Z,10.10
2022-12-23T14:52:53.000Z,10.10
2022-12-23T14:55:38.009Z,10.09
2022-12-23T14:58:13.116Z,10.05
2022-12-23T15:00:46.332Z,10.07
2022-12-23T15:03:15.577Z,10.14
2022-12-23T15:05:42.690Z,10.20
2022-12-23T15:08:18.555Z,10.14
2022-12-23T15:10:45.518Z,10.12
2022-12-23T15:13:17.191Z,10.04
2022-12-23T15:15:55.902Z,10.24
2022-12-23T15:18:26.989Z,10.12
2022-12-23T15:21:01.749Z,10.11
2022-12-23T15:23:28.359Z,10.05
2022-12-23T15:25:57.646Z,10.04
2022-12-23T15:28:34.354Z,10.17
2022-12-23T15:31:03.912Z,10.12
2022-12-23T15:34:02.461Z,10.12
2022-12-23T15:36:27.222Z,10.13
2022-12-23T15:38:53.861Z,10.11
2022-12-23T15:41:20.448Z,9.97
2022-12-23T15:43:47.051Z,10.04
2022-12-23T15:46:17.126Z,10.19
2022-12-23T15:48:46.283Z,10.29
2022-12-23T15:51:30.560Z,10.21
2022-12-23T15:54:05.780Z,10.28
2022-12-23T15:56:35.493Z,10.26
2022-12-23T15:59:04.827Z,10.27
2022-12-23T16:01:37.316Z,10.31
2022-12-23T16:04:06.522Z,10.28
2022-12-23T16:06:34.519Z,10.34
2022-12-23T16:09:03.887Z,10.34
2022-12-23T16:11:40.522Z,10.35
2022-12-23T16:14:31.291Z,10.23
2022-12-23T16:16:58.670Z,10.32
2022-12-23T16:19:42.490Z,10.30
2022-12-23T16:22:20.648Z,10.19
2022-12-23T16:24:50.233Z,10.32
2022-12-23T16:27:19.027Z,10.33
2022-12-23T16:29:47.068Z,10.31
2022-12-23T16:32:16.051Z,10.31
2022-12-23T16:34:48.670Z,10.31
2022-12-23T16:37:15.457Z,10.29
2022-12-23T16:39:41.975Z,10.31
2022-12-23T16:42:08.549Z,10.35
2022-12-23T16:44:35.063Z,10.35
2022-12-23T16:47:06.259Z,10.36
2022-12-23T16:49:34.271Z,10.41
2022-12-23T16:52:04.052Z,10.46
2022-12-23T16:54:30.821Z,10.46
2022-12-23T16:56:57.353Z,10.36
2022-12-23T16:59:23.980Z,10.55
2022-12-23T17:01:50.944Z,10.65
2022-12-23T17:04:17.620Z,10.76
2022-12-23T17:06:44.192Z,10.87
2022-12-23T17:09:12.222Z,10.98
2022-12-23T17:11:43.125Z,11.09
2022-12-23T17:14:15.839Z,11.25
2022-12-23T17:16:43.492Z,11.32
2022-12-23T17:19:10.496Z,11.43
2022-12-23T17:21:38.579Z,11.53
2022-12-23T17:24:08.817Z,11.61
2022-12-23T17:26:37.079Z,11.66
2022-12-23T17:29:04.789Z,11.71
2022-12-23T17:31:32.867Z,11.66
2022-12-23T17:33:59.470Z,11.82
2022-12-23T17:36:26.195Z,11.83
2022-12-23T17:38:52.746Z,11.82
2022-12-23T17:41:24.802Z,11.87
2022-12-23T17:43:52.810Z,11.92
2022-12-23T17:46:19.515Z,11.94
2022-12-23T17:48:46.272Z,11.92
2022-12-23T17:51:14.312Z,11.76
2022-12-23T17:53:40.931Z,11.85
2022-12-23T17:56:11.389Z,11.89
2022-12-23T17:58:38.011Z,11.82
2022-12-23T18:01:06.442Z,11.84
2022-12-23T18:03:33.037Z,11.96
2022-12-23T18:06:02.296Z,11.98
2022-12-23T18:08:29.342Z,11.96
2022-12-23T18:10:57.922Z,11.95
2022-12-23T18:13:24.820Z,11.92
2022-12-23T18:15:51.355Z,11.94
2022-12-23T18:18:28.588Z,11.93
2022-12-23T18:20:59.848Z,11.89
2022-12-23T18:23:28.873Z,11.87
2022-12-23T18:25:56.176Z,11.96
2022-12-23T18:28:22.884Z,11.93
2022-12-23T18:30:49.850Z,11.91
2022-12-23T18:33:16.617Z,11.85
2022-12-23T18:35:48.563Z,11.82
2022-12-23T18:38:19.984Z,11.63
2022-12-23T18:40:57.366Z,11.87
2022-12-23T18:43:25.830Z,11.70
2022-12-23T18:45:54.644Z,11.81
2022-12-23T18:48:22.374Z,11.83
2022-12-23T18:50:51.181Z,11.81
2022-12-23T18:53:24.904Z,11.90
2022-12-23T18:55:53.212Z,11.89
2022-12-23T18:58:21.768Z,11.81
2022-12-23T19:00:51.985Z,11.85
2022-12-23T19:03:25.553Z,11.87
2022-12-23T19:05:58.689Z,11.96
2022-12-23T19:08:28.069Z,11.88
2022-12-23T19:10:58.120Z,11.81
2022-12-23T19:13:26.651Z,11.82
2022-12-23T19:15:54.207Z,11.85
2022-12-23T19:18:21.780Z,11.84
2022-12-23T19:20:49.215Z,11.83
2022-12-23T19:23:17.191Z,11.86
2022-12-23T19:25:52.488Z,11.82
2022-12-23T19:28:21.636Z,11.81
2022-12-23T19:30:48.225Z,11.93
2022-12-23T19:33:14.853Z,11.94
2022-12-23T19:35:41.562Z,11.88
2022-12-23T19:38:08.352Z,11.83
2022-12-23T19:40:36.389Z,11.88
2022-12-23T19:43:03.532Z,11.83
2022-12-23T19:45:30.068Z,11.71
2022-12-23T19:47:56.806Z,11.86
2022-12-23T19:50:23.694Z,11.85
2022-12-23T19:52:50.257Z,11.84
2022-12-23T19:55:16.781Z,11.86
2022-12-23T19:57:44.714Z,11.94
2022-12-23T20:00:12.619Z,11.88
2022-12-23T20:02:39.414Z,11.61
2022-12-23T20:05:06.805Z,11.66
2022-12-23T20:07:35.256Z,11.79
2022-12-23T20:10:02.208Z,11.80
2022-12-23T20:12:28.874Z,11.81
2022-12-23T20:14:56.740Z,11.92
2022-12-23T20:17:23.371Z,11.85
2022-12-23T20:19:49.907Z,11.85
2022-12-23T20:22:16.461Z,11.86
2022-12-23T20:24:43.014Z,11.88
2022-12-23T20:27:12.558Z,11.90
2022-12-23T20:29:41.819Z,11.91
2022-12-23T20:32:10.055Z,11.94
2022-12-23T20:34:40.089Z,11.88
2022-12-23T20:37:07.333Z,11.74
2022-12-23T20:39:34.266Z,11.92
2022-12-23T20:42:00.868Z,11.82
2022-12-23T20:44:36.677Z,11.92
2022-12-23T20:47:05.393Z,11.91
2022-12-23T20:49:33.812Z,11.93
2022-12-23T20:52:00.894Z,11.87
2022-12-23T20:54:32.669Z,11.88
2022-12-23T20:57:00.401Z,11.88
2022-12-23T20:59:26.934Z,11.94
2022-12-23T21:01:53.713Z,11.92
2022-12-23T21:04:20.311Z,11.88
2022-12-23T21:06:48.291Z,11.87
2022-12-23T21:09:15.420Z,11.90
2022-12-23T21:11:43.704Z,11.87
2022-12-23T21:14:12.505Z,11.85
2022-12-23T21:16:48.005Z,11.76
2022-12-23T21:19:17.278Z,11.86
2022-12-23T21:21:44.428Z,11.80
2022-12-23T21:24:12.596Z,11.80
2022-12-23T21:26:39.402Z,11.86
2022-12-23T21:29:07.964Z,11.87
2022-12-23T21:31:36.984Z,11.87
2022-12-23T21:34:04.317Z,11.87
2022-12-23T21:36:33.545Z,11.90
2022-12-23T21:39:00.983Z,11.89
2022-12-23T21:41:30.534Z,11.78
2022-12-23T21:43:57.824Z,11.87
2022-12-23T21:46:25.046Z,11.86
2022-12-23T21:48:52.152Z,11.94
2022-12-23T21:51:21.568Z,11.82
2022-12-23T21:53:51.134Z,11.90
2022-12-23T21:56:19.566Z,11.88
2022-12-23T21:58:47.606Z,11.90
2022-12-23T22:01:17.117Z,11.86
2022-12-23T22:03:44.715Z,11.73
2022-12-23T22:06:13.780Z,11.78
2022-12-23T22:08:41.421Z,11.81
2022-12-23T22:11:08.884Z,11.80
2022-12-23T22:13:35.745Z,11.77
2022-12-23T22:16:04.808Z,11.79
2022-12-23T22:18:31.844Z,11.65
2022-12-23T22:20:58.350Z,11.78
2022-12-23T22:23:24.901Z,11.76
2022-12-23T22:25:52.512Z,11.77
2022-12-23T22:28:19.203Z,11.78
2022-12-23T22:30:45.775Z,11.67
2022-12-23T22:33:13.996Z,11.77
2022-12-23T22:35:40.552Z,11.68
2022-12-23T22:38:07.350Z,11.65
2022-12-23T22:40:34.576Z,11.68
2022-12-23T22:43:01.198Z,11.49
2022-12-23T22:45:27.868Z,11.68
2022-12-23T22:47:54.616Z,11.64
2022-12-23T22:50:22.636Z,11.66
2022-12-23T22:52:49.298Z,11.59
2022-12-23T22:55:15.876Z,11.59
2022-12-23T22:57:42.471Z,11.60
2022-12-23T23:00:12.599Z,11.64
2022-12-23T23:02:39.624Z,11.59
2022-12-23T23:05:12.699Z,11.59
2022-12-23T23:07:41.103Z,11.61
2022-12-23T23:10:09.310Z,11.53
2022-12-23T23:12:36.012Z,11.34
2022-12-23T23:15:02.566Z,11.55
2022-12-23T23:17:29.237Z,11.55
2022-12-23T23:19:55.982Z,11.44
2022-12-23T23:22:24.177Z,11.46
2022-12-23T23:24:52.387Z,11.46
2022-12-23T23:27:19.353Z,11.51
2022-12-23T23:29:45.952Z,11.44
2022-12-23T23:32:12.888Z,11.48
2022-12-23T23:34:39.475Z,11.47
2022-12-23T23:37:06.125Z,11.25
2022-12-23T23:39:32.702Z,11.49
2022-12-23T23:42:01.063Z,11.54
2022-12-23T23:44:27.628Z,11.55
2022-12-23T23:46:54.209Z,11.32
2022-12-23T23:49:21.458Z,11.31
2022-12-23T23:51:48.105Z,11.39
2022-12-23T23:54:14.639Z,11.36
2022-12-23T23:56:41.212Z,11.36
2022-12-23T23:59:09.334Z,11.36
